Time;durP1;ratioP1;P1;durP2;ratioP2;P2;SDS_P1;SDS_P2;PMS_P1;PMS_P2;Temp;Humidity;BMP_temperature;BMP_pressure;BME280_temperature;BME280_humidity;BME280_pressure;Samples;Min_cycle;Max_cycle;Signal;HPM_P1;HPM_P2
2021/01/19 00:00:20;;;;;;;18.20;9.85;;;5.80;99.90;;;;;;4852858;29;20090;-68
2021/01/19 00:02:46;;;;;;;18.70;9.23;;;5.80;99.90;;;;;;4838995;29;20053;-67
2021/01/19 00:05:13;;;;;;;18.80;10.80;;;5.80;99.90;;;;;;4853168;29;20062;-68
2021/01/19 00:07:40;;;;;;;19.05;10.25;;;5.80;99.90;;;;;;4832678;29;20068;-68
2021/01/19 00:10:07;;;;;;;16.60;9.90;;;5.80;99.90;;;;;;4831325;29;20057;-68
2021/01/19 00:12:34;;;;;;;18.95;9.52;;;5.80;99.90;;;;;;4839564;29;20110;-68
2021/01/19 00:15:00;;;;;;;16.38;9.02;;;5.80;99.90;;;;;;4832573;29;20054;-68
2021/01/19 00:17:27;;;;;;;15.20;8.77;;;5.80;99.90;;;;;;4832915;29;20053;-68
2021/01/19 00:19:53;;;;;;;15.35;8.80;;;5.80;99.90;;;;;;4840455;29;20061;-68
2021/01/19 00:22:19;;;;;;;17.98;8.65;;;5.80;99.90;;;;;;4851583;29;20166;-68
2021/01/19 00:24:46;;;;;;;14.98;7.63;;;5.80;99.90;;;;;;4841446;29;20161;-68
2021/01/19 00:27:12;;;;;;;15.52;7.72;;;5.80;99.90;;;;;;4855874;29;20121;-68
2021/01/19 00:29:39;;;;;;;13.32;6.95;;;5.70;99.90;;;;;;4840606;29;20453;-68
2021/01/19 00:32:06;;;;;;;12.88;6.43;;;5.80;99.90;;;;;;4855508;29;20148;-68
2021/01/19 00:34:35;;;;;;;15.73;6.80;;;5.80;99.90;;;;;;4838062;29;20077;-68
2021/01/19 00:37:02;;;;;;;14.65;5.43;;;5.80;99.90;;;;;;4843729;29;20045;-68
2021/01/19 00:39:34;;;;;;;10.68;5.40;;;5.70;99.90;;;;;;4854689;29;20427;-68
2021/01/19 00:42:00;;;;;;;14.20;5.75;;;5.70;99.90;;;;;;4853603;29;20050;-68
2021/01/19 00:44:27;;;;;;;9.93;4.97;;;5.70;99.90;;;;;;4842495;29;20129;-68
2021/01/19 00:46:53;;;;;;;11.75;5.07;;;5.70;99.90;;;;;;4837593;29;20054;-68
2021/01/19 00:49:19;;;;;;;12.70;4.57;;;5.70;99.90;;;;;;4839725;29;20062;-68
2021/01/19 00:51:45;;;;;;;12.38;4.60;;;5.70;99.90;;;;;;4855655;29;20101;-67
2021/01/19 00:54:15;;;;;;;11.90;4.68;;;5.70;99.90;;;;;;4856247;29;20054;-68
2021/01/19 00:56:43;;;;;;;7.85;3.75;;;5.70;99.90;;;;;;4846289;29;20101;-68
2021/01/19 00:59:32;;;;;;;13.43;4.38;;;5.70;99.90;;;;;;4833664;29;20110;-68
2021/01/19 01:01:58;;;;;;;7.82;4.28;;;5.70;99.90;;;;;;4850641;29;20057;-68
2021/01/19 01:04:24;;;;;;;8.63;3.25;;;5.70;99.90;;;;;;4857292;29;20081;-68
2021/01/19 01:06:54;;;;;;;7.60;3.53;;;5.70;99.90;;;;;;4858715;29;20053;-68
2021/01/19 01:09:22;;;;;;;9.27;3.45;;;5.70;99.90;;;;;;4838530;29;20116;-68
2021/01/19 01:11:48;;;;;;;8.32;3.05;;;5.60;99.90;;;;;;4841344;29;20129;-68
2021/01/19 01:14:15;;;;;;;11.50;3.38;;;5.60;99.90;;;;;;4836182;29;20075;-68
2021/01/19 01:16:42;;;;;;;5.28;2.90;;;5.60;99.90;;;;;;4854310;29;20091;-68
2021/01/19 01:19:09;;;;;;;8.80;3.08;;;5.60;99.90;;;;;;4830625;29;20122;-68
2021/01/19 01:21:44;;;;;;;9.07;3.25;;;5.60;99.90;;;;;;4838908;29;20110;-68
2021/01/19 01:24:11;;;;;;;6.07;3.17;;;5.50;99.90;;;;;;4844625;29;20188;-68
2021/01/19 01:26:37;;;;;;;9.10;2.72;;;5.50;99.90;;;;;;4838523;29;20467;-67
2021/01/19 01:29:04;;;;;;;8.20;3.08;;;5.50;99.90;;;;;;4843992;29;20057;-68
2021/01/19 01:31:31;;;;;;;8.93;2.40;;;5.50;99.90;;;;;;4841081;29;20058;-68
2021/01/19 01:33:58;;;;;;;8.35;3.08;;;5.50;99.90;;;;;;4837644;29;20427;-68
2021/01/19 01:36:24;;;;;;;6.38;2.67;;;5.50;99.90;;;;;;4840369;29;20377;-67
2021/01/19 01:38:54;;;;;;;9.52;2.80;;;5.50;99.90;;;;;;4840436;29;20106;-68
2021/01/19 01:41:22;;;;;;;9.25;2.65;;;5.50;99.90;;;;;;4845090;29;20050;-68
2021/01/19 01:43:50;;;;;;;8.75;2.78;;;5.40;99.90;;;;;;4832776;29;20169;-68
2021/01/19 01:46:17;;;;;;;7.20;2.17;;;5.40;99.90;;;;;;4829468;29;20065;-68
2021/01/19 01:48:46;;;;;;;4.20;1.95;;;5.40;99.90;;;;;;4841919;29;20065;-68
2021/01/19 01:51:14;;;;;;;7.07;2.20;;;5.40;99.90;;;;;;4841026;29;20596;-68
2021/01/19 01:53:41;;;;;;;6.43;2.75;;;5.40;99.90;;;;;;4840266;29;20547;-68
2021/01/19 01:56:10;;;;;;;8.00;2.50;;;5.40;99.90;;;;;;4850688;29;20106;-68
2021/01/19 01:58:37;;;;;;;9.63;2.40;;;5.50;99.90;;;;;;4833222;29;20128;-68
2021/01/19 02:01:04;;;;;;;5.07;2.40;;;5.50;99.90;;;;;;4843562;29;20058;-68
2021/01/19 02:03:31;;;;;;;6.47;2.28;;;5.50;99.90;;;;;;4849231;29;20058;-68
2021/01/19 02:05:59;;;;;;;8.40;2.63;;;5.50;99.90;;;;;;4843992;29;20564;-68
2021/01/19 02:08:40;;;;;;;5.40;2.30;;;5.50;99.90;;;;;;4842368;29;20053;-68
2021/01/19 02:11:30;;;;;;;7.03;2.50;;;5.50;99.90;;;;;;4841223;29;20076;-68
2021/01/19 02:14:01;;;;;;;7.68;2.63;;;5.50;99.90;;;;;;4853584;29;20120;-68
2021/01/19 02:16:49;;;;;;;8.00;3.03;;;5.50;99.90;;;;;;4854850;29;20065;-68
2021/01/19 02:19:53;;;;;;;9.02;2.92;;;5.50;99.90;;;;;;4836795;29;20088;-68
2021/01/19 02:22:39;;;;;;;5.82;2.03;;;5.50;99.90;;;;;;4840657;29;20060;-68
2021/01/19 02:25:27;;;;;;;10.65;2.38;;;5.50;99.90;;;;;;4855030;29;20086;-68
2021/01/19 02:28:27;;;;;;;7.22;2.70;;;5.40;99.90;;;;;;4833147;29;20089;-68
2021/01/19 02:31:48;;;;;;;7.47;2.30;;;5.40;99.90;;;;;;4840699;29;20367;-68
2021/01/19 02:34:49;;;;;;;7.18;2.20;;;5.40;99.90;;;;;;4788403;29;20096;-67
2021/01/19 02:37:29;;;;;;;6.95;2.70;;;5.30;99.90;;;;;;4836079;29;20050;-68
2021/01/19 02:40:05;;;;;;;6.68;2.38;;;5.30;99.90;;;;;;4837508;29;20057;-68
2021/01/19 02:42:43;;;;;;;8.20;3.03;;;5.30;99.90;;;;;;4853483;29;20053;-67
2021/01/19 02:45:10;;;;;;;6.03;2.40;;;5.20;99.90;;;;;;4835851;29;20054;-67
2021/01/19 02:47:40;;;;;;;6.00;2.72;;;5.20;99.90;;;;;;4841268;29;20409;-68
2021/01/19 02:50:11;;;;;;;5.05;2.08;;;5.20;99.90;;;;;;4842103;29;20098;-68
2021/01/19 02:52:38;;;;;;;9.35;2.58;;;5.10;99.90;;;;;;4842605;29;20105;-68
2021/01/19 02:55:06;;;;;;;5.95;3.10;;;5.10;99.90;;;;;;4838099;29;20061;-68
2021/01/19 02:57:51;;;;;;;10.68;3.35;;;5.00;99.90;;;;;;4833334;29;20079;-68
2021/01/19 03:00:44;;;;;;;7.82;2.95;;;5.00;99.90;;;;;;4835252;29;20086;-68
2021/01/19 03:03:13;;;;;;;13.38;3.33;;;4.90;99.90;;;;;;4846406;29;20050;-68
2021/01/19 03:05:41;;;;;;;10.68;3.10;;;4.90;99.90;;;;;;4830579;29;20053;-68
2021/01/19 03:08:08;;;;;;;5.93;2.40;;;4.90;99.90;;;;;;4840974;29;20448;-68
2021/01/19 03:10:39;;;;;;;9.45;3.35;;;4.90;99.90;;;;;;4831821;29;20054;-68
2021/01/19 03:13:11;;;;;;;10.38;2.80;;;4.80;99.90;;;;;;4838117;29;20129;-68
2021/01/19 03:15:39;;;;;;;7.18;2.85;;;4.80;99.90;;;;;;4841695;29;20133;-68
2021/01/19 03:18:09;;;;;;;7.03;3.10;;;4.80;99.90;;;;;;4842848;29;20383;-68
2021/01/19 03:20:37;;;;;;;11.10;3.60;;;4.80;99.90;;;;;;4837553;29;20302;-68
2021/01/19 03:23:03;;;;;;;10.32;3.45;;;4.80;99.90;;;;;;4841545;29;20477;-68
2021/01/19 03:25:30;;;;;;;9.27;3.85;;;4.80;99.90;;;;;;4834577;29;20053;-68
2021/01/19 03:27:56;;;;;;;15.45;4.32;;;4.80;99.90;;;;;;4848244;29;20081;-68
2021/01/19 03:30:23;;;;;;;9.32;3.78;;;4.80;99.90;;;;;;4835468;29;20489;-68
2021/01/19 03:32:49;;;;;;;8.02;3.90;;;4.70;99.90;;;;;;4838244;29;20536;-68
2021/01/19 03:35:16;;;;;;;9.43;4.18;;;4.70;99.90;;;;;;4837506;29;20107;-68
2021/01/19 03:37:42;;;;;;;7.60;4.03;;;4.80;99.90;;;;;;4832211;29;20106;-68
2021/01/19 03:40:09;;;;;;;7.50;4.07;;;4.70;99.90;;;;;;4841440;29;20664;-68
2021/01/19 03:42:35;;;;;;;10.52;4.32;;;4.70;99.90;;;;;;4846289;29;20050;-68
2021/01/19 03:45:03;;;;;;;12.70;4.70;;;4.70;99.90;;;;;;4839157;29;20065;-68
2021/01/19 03:47:33;;;;;;;10.20;4.35;;;4.70;99.90;;;;;;4837271;29;20061;-68
2021/01/19 03:50:00;;;;;;;7.72;3.88;;;4.70;99.90;;;;;;4829628;29;20121;-68
2021/01/19 03:52:27;;;;;;;9.95;4.80;;;4.70;99.90;;;;;;4827795;29;20061;-68
2021/01/19 03:54:54;;;;;;;12.30;4.90;;;4.70;99.90;;;;;;4849721;29;20870;-68
2021/01/19 03:57:20;;;;;;;14.25;5.43;;;4.70;99.90;;;;;;4845772;29;20057;-68
2021/01/19 03:59:46;;;;;;;11.38;5.28;;;4.70;99.90;;;;;;4827093;29;20109;-68
2021/01/19 04:02:13;;;;;;;13.65;5.60;;;4.70;99.90;;;;;;4844059;29;20106;-68
2021/01/19 04:04:40;;;;;;;10.60;5.07;;;4.70;99.90;;;;;;4828451;29;20062;-68
2021/01/19 04:07:07;;;;;;;10.50;4.68;;;4.70;99.90;;;;;;4840914;29;20459;-68
2021/01/19 04:09:33;;;;;;;12.75;5.22;;;4.80;99.90;;;;;;4826430;29;20402;-68
2021/01/19 04:12:01;;;;;;;9.68;5.13;;;4.70;99.90;;;;;;4827631;29;20089;-68
2021/01/19 04:14:28;;;;;;;12.23;5.25;;;4.70;99.90;;;;;;4827691;29;20147;-68
2021/01/19 04:16:54;;;;;;;10.48;4.88;;;4.70;99.90;;;;;;4826008;29;20089;-68
2021/01/19 04:19:20;;;;;;;10.80;5.05;;;4.80;99.90;;;;;;4826341;29;20058;-67
2021/01/19 04:21:47;;;;;;;11.95;5.50;;;4.80;99.90;;;;;;4829695;29;20057;-68
2021/01/19 04:24:14;;;;;;;10.50;5.20;;;4.80;99.90;;;;;;4844756;29;20078;-67
2021/01/19 04:26:40;;;;;;;9.43;5.35;;;4.80;99.90;;;;;;4828900;29;20054;-68
2021/01/19 04:29:07;;;;;;;13.88;6.00;;;4.80;99.90;;;;;;4828420;29;20081;-68
2021/01/19 04:31:34;;;;;;;11.10;5.53;;;4.80;99.90;;;;;;4828836;29;20054;-68
2021/01/19 04:34:02;;;;;;;14.48;6.60;;;4.80;99.90;;;;;;4827824;29;20555;-68
2021/01/19 04:36:29;;;;;;;13.05;5.45;;;4.80;99.90;;;;;;4843401;29;20049;-68
2021/01/19 04:38:55;;;;;;;14.35;6.10;;;4.80;99.90;;;;;;4828797;29;20506;-68
2021/01/19 04:41:23;;;;;;;8.80;5.40;;;4.90;99.90;;;;;;4841354;29;20109;-69
2021/01/19 04:43:50;;;;;;;9.30;5.55;;;4.90;99.90;;;;;;4829803;29;20110;-68
2021/01/19 04:46:19;;;;;;;12.02;5.30;;;4.90;99.90;;;;;;4836302;29;20049;-69
2021/01/19 04:48:47;;;;;;;11.35;5.55;;;4.90;99.90;;;;;;4828839;29;20077;-69
2021/01/19 04:51:22;;;;;;;9.10;5.38;;;4.90;99.90;;;;;;4830129;29;20509;-69
2021/01/19 04:54:10;;;;;;;8.18;4.90;;;4.90;99.90;;;;;;4840931;29;20170;-69
2021/01/19 04:56:39;;;;;;;7.10;4.45;;;4.90;99.90;;;;;;4842799;29;20046;-69
2021/01/19 04:59:12;;;;;;;8.25;4.80;;;4.90;99.90;;;;;;4830685;29;20061;-69
2021/01/19 05:01:51;;;;;;;8.50;4.85;;;4.90;99.90;;;;;;4836497;29;20502;-69
2021/01/19 05:04:27;;;;;;;;;;;4.90;99.90;;;;;;4833465;29;20117;-69
2021/01/19 05:07:13;;;;;;;9.60;4.93;;;4.90;99.90;;;;;;4830161;29;20273;-69
2021/01/19 05:10:04;;;;;;;8.65;5.05;;;4.90;99.90;;;;;;4840093;29;20477;-69
2021/01/19 05:12:39;;;;;;;5.40;3.58;;;4.90;99.90;;;;;;4837381;29;20082;-69
2021/01/19 05:15:10;;;;;;;7.40;4.40;;;4.90;99.90;;;;;;4837166;29;20054;-69
2021/01/19 05:17:39;;;;;;;7.72;4.60;;;4.90;99.90;;;;;;4836758;29;20510;-69
2021/01/19 05:20:07;;;;;;;6.43;3.63;;;4.90;99.90;;;;;;4846330;29;20455;-69
2021/01/19 05:22:34;;;;;;;8.70;5.05;;;4.90;99.90;;;;;;4840786;29;20145;-69
2021/01/19 05:25:00;;;;;;;7.18;4.20;;;5.00;99.90;;;;;;4837799;29;20049;-69
2021/01/19 05:27:27;;;;;;;6.10;4.03;;;5.00;99.90;;;;;;4842157;29;20118;-69
2021/01/19 05:30:01;;;;;;;7.30;4.10;;;5.00;99.90;;;;;;4849654;29;20153;-69
2021/01/19 05:32:54;;;;;;;8.00;4.13;;;5.00;99.90;;;;;;4848432;29;20090;-69
2021/01/19 05:35:21;;;;;;;7.47;4.15;;;5.00;99.90;;;;;;4853199;29;20046;-69
2021/01/19 05:37:58;;;;;;;7.38;4.20;;;5.00;99.90;;;;;;4834372;29;20050;-69
2021/01/19 05:40:28;;;;;;;6.53;3.92;;;5.00;99.90;;;;;;4832407;29;20110;-70
2021/01/19 05:42:55;;;;;;;7.05;4.32;;;5.00;99.90;;;;;;4847892;29;20137;-69
2021/01/19 05:45:22;;;;;;;7.55;4.43;;;5.00;99.90;;;;;;4850245;29;20069;-69
2021/01/19 05:47:50;;;;;;;6.38;4.13;;;5.10;99.90;;;;;;4832158;29;20095;-69
2021/01/19 05:50:16;;;;;;;6.68;3.90;;;5.10;99.90;;;;;;4837139;29;20120;-69
2021/01/19 05:52:42;;;;;;;8.05;4.35;;;5.10;99.90;;;;;;4850045;29;20057;-69
2021/01/19 05:55:10;;;;;;;8.15;3.90;;;5.10;99.90;;;;;;4833878;29;20072;-70
2021/01/19 05:57:38;;;;;;;9.13;4.43;;;5.10;99.90;;;;;;4826744;29;20054;-70
2021/01/19 06:00:05;;;;;;;7.95;4.25;;;5.10;99.90;;;;;;4840099;29;20413;-70
2021/01/19 06:02:37;;;;;;;6.47;4.00;;;5.10;99.90;;;;;;4841876;29;20078;-70
2021/01/19 06:05:15;;;;;;;7.38;4.28;;;5.20;99.90;;;;;;4836093;29;20069;-70
2021/01/19 06:07:46;;;;;;;7.22;4.00;;;5.20;99.90;;;;;;4840066;29;20531;-70
2021/01/19 06:10:18;;;;;;;8.27;4.47;;;5.20;99.90;;;;;;4840782;29;20157;-70
2021/01/19 06:12:45;;;;;;;7.53;4.28;;;5.20;99.90;;;;;;4844255;29;20462;-70
2021/01/19 06:15:12;;;;;;;7.05;4.60;;;5.20;99.90;;;;;;4840993;29;20121;-70
2021/01/19 06:17:38;;;;;;;8.68;4.35;;;5.20;99.90;;;;;;4844346;29;20417;-70
2021/01/19 06:20:06;;;;;;;7.20;3.80;;;5.20;99.90;;;;;;4841518;29;20061;-70
2021/01/19 06:22:34;;;;;;;6.07;3.85;;;5.30;99.90;;;;;;4844232;29;20065;-70
2021/01/19 06:25:04;;;;;;;7.13;3.80;;;5.30;99.90;;;;;;4833781;29;20065;-70
2021/01/19 06:27:33;;;;;;;5.50;4.22;;;5.30;99.90;;;;;;4862140;29;20049;-70
2021/01/19 06:30:00;;;;;;;8.05;3.58;;;5.30;99.90;;;;;;4831695;29;20054;-70
2021/01/19 06:32:33;;;;;;;7.28;3.88;;;5.30;99.90;;;;;;4843052;29;20109;-70
2021/01/19 06:35:21;;;;;;;6.97;3.92;;;5.30;99.90;;;;;;4846455;29;20053;-70
2021/01/19 06:37:51;;;;;;;4.60;3.53;;;5.40;99.90;;;;;;4840454;29;20072;-70
2021/01/19 06:40:24;;;;;;;5.28;3.65;;;5.40;99.90;;;;;;4850367;29;20045;-70
2021/01/19 06:43:00;;;;;;;5.85;3.63;;;5.40;99.90;;;;;;4837167;29;20060;-70
2021/01/19 06:45:27;;;;;;;6.95;3.72;;;5.40;99.90;;;;;;4838136;29;20062;-70
2021/01/19 06:47:54;;;;;;;5.45;3.53;;;5.40;99.90;;;;;;4833593;29;20425;-70
2021/01/19 06:50:35;;;;;;;8.70;4.18;;;5.50;99.90;;;;;;4842481;29;20577;-70
2021/01/19 06:53:22;;;;;;;5.03;3.25;;;5.50;99.90;;;;;;4838168;29;20057;-69
2021/01/19 06:56:02;;;;;;;3.50;2.55;;;5.50;99.90;;;;;;4847580;29;20152;-70
2021/01/19 06:58:55;;;;;;;4.10;2.83;;;5.50;99.90;;;;;;4835165;29;20129;-71
2021/01/19 07:01:28;;;;;;;5.85;3.25;;;5.50;99.90;;;;;;4838981;29;20049;-70
2021/01/19 07:04:14;;;;;;;5.55;3.60;;;5.60;99.90;;;;;;4835444;29;20475;-70
2021/01/19 07:07:14;;;;;;;5.72;3.08;;;5.60;99.90;;;;;;4842825;29;20065;-71
2021/01/19 07:09:59;;;;;;;7.60;3.33;;;5.60;99.90;;;;;;4843003;29;20086;-70
2021/01/19 07:12:53;;;;;;;5.25;3.20;;;5.60;99.90;;;;;;4843184;29;20057;-70
2021/01/19 07:15:32;;;;;;;4.63;3.15;;;5.70;99.90;;;;;;4842742;29;20054;-71
2021/01/19 07:18:41;;;;;;;6.30;3.33;;;5.70;99.90;;;;;;4852060;29;20053;-71
2021/01/19 07:21:16;;;;;;;4.32;3.05;;;5.70;99.90;;;;;;4847508;29;20061;-71
2021/01/19 07:23:46;;;;;;;4.07;3.20;;;5.70;99.90;;;;;;4838129;29;20053;-71
2021/01/19 07:26:17;;;;;;;4.38;3.08;;;5.70;99.90;;;;;;4843341;29;20382;-70
2021/01/19 07:28:45;;;;;;;4.72;3.22;;;5.80;99.90;;;;;;4841519;29;20061;-70
2021/01/19 07:31:12;;;;;;;4.95;3.40;;;5.80;99.90;;;;;;4845434;29;20113;-71
2021/01/19 07:33:52;;;;;;;6.47;3.33;;;5.80;99.90;;;;;;4842839;29;20062;-69
2021/01/19 07:36:24;;;;;;;4.75;3.42;;;5.90;99.90;;;;;;4860428;29;20846;-69
2021/01/19 07:38:52;;;;;;;4.53;3.15;;;5.90;99.90;;;;;;4839296;29;20068;-70
2021/01/19 07:41:32;;;;;;;4.30;3.05;;;5.90;99.90;;;;;;4837369;29;20191;-69
2021/01/19 07:43:59;;;;;;;7.00;3.65;;;6.00;99.90;;;;;;4830342;29;20050;-71
2021/01/19 07:46:41;;;;;;;7.68;3.33;;;6.00;99.90;;;;;;4838345;29;20065;-74
2021/01/19 07:49:09;;;;;;;5.72;3.50;;;6.00;99.90;;;;;;4855004;29;20474;-68
2021/01/19 07:51:47;;;;;;;5.32;3.75;;;6.10;99.90;;;;;;4843885;29;20066;-68
2021/01/19 07:54:32;;;;;;;4.43;2.83;;;6.10;99.90;;;;;;4838088;29;20060;-68
2021/01/19 07:57:15;;;;;;;5.18;2.92;;;6.10;99.90;;;;;;4839977;29;20131;-68
2021/01/19 07:59:43;;;;;;;6.50;3.15;;;6.20;99.90;;;;;;4843322;29;20096;-70
2021/01/19 08:02:37;;;;;;;7.43;3.90;;;6.20;99.90;;;;;;4839416;29;20118;-70
2021/01/19 08:05:05;;;;;;;6.03;3.25;;;6.30;99.90;;;;;;4841014;29;20057;-69
2021/01/19 08:08:23;;;;;;;5.65;2.85;;;6.30;99.90;;;;;;4837172;29;20084;-69
2021/01/19 08:11:19;;;;;;;4.05;2.90;;;6.30;99.90;;;;;;4796711;29;20061;-70
2021/01/19 08:14:02;;;;;;;5.18;2.65;;;6.40;99.90;;;;;;4862967;29;20097;-70
2021/01/19 08:16:33;;;;;;;3.50;2.55;;;6.40;99.90;;;;;;4858512;29;20105;-70
2021/01/19 08:19:09;;;;;;;5.20;2.90;;;6.50;99.90;;;;;;4846912;29;20058;-70
2021/01/19 08:21:51;;;;;;;4.72;2.80;;;6.50;99.90;;;;;;4838588;29;20109;-70
2021/01/19 08:24:22;;;;;;;3.55;2.80;;;6.60;99.90;;;;;;4842581;29;20049;-70
2021/01/19 08:26:49;;;;;;;4.18;2.95;;;6.60;99.90;;;;;;4845156;29;20061;-70
2021/01/19 08:29:28;;;;;;;4.35;2.67;;;6.60;99.90;;;;;;4838526;29;20425;-70
2021/01/19 08:32:00;;;;;;;4.82;2.88;;;6.60;99.90;;;;;;4841481;29;20113;-70
2021/01/19 08:34:29;;;;;;;4.90;2.78;;;6.70;99.90;;;;;;4855239;29;20141;-70
2021/01/19 08:36:59;;;;;;;3.78;2.30;;;6.70;99.90;;;;;;4847393;29;20091;-70
2021/01/19 08:39:25;;;;;;;3.50;2.40;;;6.70;99.90;;;;;;4835194;29;20529;-70
2021/01/19 08:41:54;;;;;;;3.55;2.30;;;6.80;99.90;;;;;;4830957;29;20057;-70
2021/01/19 08:44:31;;;;;;;;;;;6.80;99.90;;;;;;4843526;29;20053;-70
2021/01/19 08:46:57;;;;;;;3.75;2.25;;;6.80;99.90;;;;;;4839447;29;19980;-69
2021/01/19 08:49:24;;;;;;;3.60;2.50;;;6.80;99.90;;;;;;4832623;29;20057;-70
2021/01/19 08:51:52;;;;;;;5.22;2.33;;;6.80;99.90;;;;;;4832345;29;20129;-71
2021/01/19 08:54:20;;;;;;;3.78;2.22;;;6.80;99.90;;;;;;4838619;29;20066;-70
2021/01/19 08:56:47;;;;;;;3.95;2.17;;;6.90;99.90;;;;;;4829055;29;20176;-70
2021/01/19 08:59:17;;;;;;;3.38;2.33;;;6.90;99.90;;;;;;4827920;29;20117;-70
2021/01/19 09:01:55;;;;;;;2.60;1.80;;;6.90;99.90;;;;;;4828699;29;20158;-70
2021/01/19 09:04:28;;;;;;;4.00;2.20;;;7.00;99.90;;;;;;4844539;29;20046;-71
2021/01/19 09:07:07;;;;;;;3.38;2.17;;;7.00;99.90;;;;;;4829654;29;20534;-71
2021/01/19 09:09:35;;;;;;;5.93;2.22;;;7.00;99.90;;;;;;4827144;29;20064;-70
2021/01/19 09:12:01;;;;;;;3.72;2.10;;;7.10;99.90;;;;;;4830133;29;20117;-70
2021/01/19 09:14:29;;;;;;;3.20;2.45;;;7.10;99.90;;;;;;4844528;29;20490;-70
2021/01/19 09:16:56;;;;;;;2.85;2.10;;;7.10;99.90;;;;;;4831131;29;23018;-70
2021/01/19 09:19:23;;;;;;;2.78;2.10;;;7.20;99.90;;;;;;4830757;29;20496;-71
2021/01/19 09:21:51;;;;;;;3.03;2.28;;;7.20;99.90;;;;;;4827506;29;20455;-70
2021/01/19 09:24:21;;;;;;;3.95;2.50;;;7.20;99.90;;;;;;4832739;29;20478;-70
2021/01/19 09:27:00;;;;;;;3.50;2.40;;;7.20;99.90;;;;;;4830652;29;20582;-71
2021/01/19 09:29:31;;;;;;;3.90;2.38;;;7.30;99.90;;;;;;4845930;29;20132;-70
2021/01/19 09:31:59;;;;;;;4.50;2.22;;;7.30;99.90;;;;;;4827933;29;20065;-71
2021/01/19 09:34:27;;;;;;;3.70;2.07;;;7.30;99.90;;;;;;4829715;29;20057;-71
2021/01/19 09:36:55;;;;;;;3.72;2.45;;;7.40;99.90;;;;;;4829003;29;20314;-71
2021/01/19 09:39:29;;;;;;;3.43;2.33;;;7.40;99.90;;;;;;4828232;29;20401;-71
2021/01/19 09:42:06;;;;;;;4.00;2.20;;;7.40;99.90;;;;;;4822566;29;20124;-71
2021/01/19 09:44:36;;;;;;;2.90;1.80;;;7.40;99.90;;;;;;4827660;29;20062;-71
2021/01/19 09:47:09;;;;;;;2.97;2.17;;;7.50;99.90;;;;;;4828877;29;20125;-70
2021/01/19 09:49:39;;;;;;;4.68;2.10;;;7.50;99.90;;;;;;4848640;29;20057;-71
2021/01/19 09:52:11;;;;;;;3.15;2.00;;;7.50;99.90;;;;;;4826251;29;20199;-71
2021/01/19 09:54:37;;;;;;;3.25;2.20;;;7.50;99.90;;;;;;4843944;29;20074;-72
2021/01/19 09:57:04;;;;;;;4.78;1.80;;;7.60;99.90;;;;;;4828247;29;20152;-71
2021/01/19 09:59:31;;;;;;;3.83;1.70;;;7.60;99.90;;;;;;4830385;29;20053;-71
2021/01/19 10:01:59;;;;;;;2.80;1.83;;;7.60;99.90;;;;;;4829810;29;20113;-70
2021/01/19 10:04:27;;;;;;;3.33;1.70;;;7.60;99.90;;;;;;4829014;29;20050;-70
2021/01/19 10:07:10;;;;;;;3.35;1.98;;;7.60;99.90;;;;;;4847099;29;20368;-71
2021/01/19 10:09:37;;;;;;;3.90;2.22;;;7.60;99.90;;;;;;4829931;29;20101;-71
2021/01/19 10:12:08;;;;;;;3.50;2.08;;;7.70;99.90;;;;;;4824260;29;20091;-71
2021/01/19 10:14:41;;;;;;;3.92;2.25;;;7.70;99.90;;;;;;4845318;29;20609;-71
2021/01/19 10:17:33;;;;;;;4.50;2.10;;;7.70;99.90;;;;;;4826573;29;20410;-72
2021/01/19 10:20:14;;;;;;;3.55;2.33;;;7.70;99.90;;;;;;4826024;29;20507;-72
2021/01/19 10:22:43;;;;;;;3.05;2.30;;;7.70;99.90;;;;;;4830614;29;20133;-71
2021/01/19 10:25:12;;;;;;;3.67;2.35;;;7.80;99.90;;;;;;4830783;29;20090;-71
2021/01/19 10:27:44;;;;;;;3.75;2.30;;;7.80;99.90;;;;;;4827306;29;20049;-71
2021/01/19 10:30:12;;;;;;;3.47;2.22;;;7.80;99.90;;;;;;4829362;29;20438;-72
2021/01/19 10:32:50;;;;;;;2.80;1.92;;;7.80;99.90;;;;;;4832225;29;20502;-72
2021/01/19 10:35:34;;;;;;;3.50;2.17;;;7.80;99.90;;;;;;4841994;29;20553;-71
2021/01/19 10:38:08;;;;;;;3.53;2.42;;;7.80;99.90;;;;;;4844825;29;20053;-72
2021/01/19 10:40:36;;;;;;;4.40;2.25;;;7.80;99.90;;;;;;4845894;29;20078;-71
2021/01/19 10:43:12;;;;;;;3.22;2.13;;;7.80;99.90;;;;;;4843084;29;20481;-70
2021/01/19 10:45:40;;;;;;;3.53;2.30;;;7.80;99.90;;;;;;4826650;29;20058;-71
2021/01/19 10:48:17;;;;;;;5.00;2.60;;;7.80;99.90;;;;;;4829917;29;20125;-71
2021/01/19 10:50:44;;;;;;;4.28;2.40;;;7.80;99.90;;;;;;4828089;29;20153;-71
2021/01/19 10:53:10;;;;;;;3.33;2.28;;;7.80;99.90;;;;;;4826627;29;20101;-71
2021/01/19 10:55:37;;;;;;;3.83;2.70;;;7.90;99.90;;;;;;4825730;29;20656;-71
2021/01/19 10:58:05;;;;;;;3.95;2.33;;;7.90;99.90;;;;;;4833496;29;20050;-72
2021/01/19 11:00:33;;;;;;;5.97;2.60;;;7.90;99.90;;;;;;4828744;29;20057;-72
2021/01/19 11:03:01;;;;;;;4.45;2.55;;;7.90;99.90;;;;;;4827659;29;20088;-72
2021/01/19 11:05:28;;;;;;;4.18;2.47;;;8.00;99.90;;;;;;4828409;29;20053;-72
2021/01/19 11:07:55;;;;;;;4.75;2.67;;;8.00;99.90;;;;;;4823661;29;20185;-72
2021/01/19 11:10:24;;;;;;;4.05;2.75;;;8.10;99.90;;;;;;4828683;29;20058;-72
2021/01/19 11:12:52;;;;;;;5.13;3.03;;;8.10;99.90;;;;;;4826570;29;20117;-72
2021/01/19 11:15:19;;;;;;;6.03;3.08;;;8.10;99.90;;;;;;4825076;29;20057;-72
2021/01/19 11:17:50;;;;;;;4.90;3.28;;;8.20;99.90;;;;;;4827211;29;20106;-71
2021/01/19 11:20:17;;;;;;;4.78;2.90;;;8.20;99.90;;;;;;4840108;29;20050;-71
2021/01/19 11:22:45;;;;;;;4.78;3.10;;;8.30;99.90;;;;;;4848909;29;20110;-71
2021/01/19 11:25:12;;;;;;;6.85;2.92;;;8.40;99.90;;;;;;4840206;29;20053;-71
2021/01/19 11:27:39;;;;;;;6.00;3.00;;;8.40;99.90;;;;;;4841892;29;20502;-71
2021/01/19 11:30:07;;;;;;;5.47;3.30;;;8.50;99.90;;;;;;4836831;29;20072;-71
2021/01/19 11:32:34;;;;;;;5.10;2.75;;;8.60;99.90;;;;;;4840947;29;20732;-72
2021/01/19 11:35:01;;;;;;;7.40;3.17;;;8.70;99.90;;;;;;4826857;29;20363;-72
2021/01/19 11:37:28;;;;;;;4.88;2.47;;;8.70;99.90;;;;;;4825209;29;20061;-72
2021/01/19 11:39:54;;;;;;;4.05;2.33;;;8.80;99.90;;;;;;4827874;29;20070;-71
2021/01/19 11:42:21;;;;;;;7.72;2.10;;;8.90;99.90;;;;;;4827790;29;20141;-71
2021/01/19 11:44:47;;;;;;;3.67;1.90;;;9.00;99.90;;;;;;4828158;29;20486;-72
2021/01/19 11:47:14;;;;;;;5.88;1.40;;;9.10;99.90;;;;;;4826426;29;20054;-72
2021/01/19 11:49:48;;;;;;;4.40;1.40;;;9.20;99.90;;;;;;4844345;29;20049;-71
2021/01/19 11:52:22;;;;;;;3.45;1.40;;;9.30;99.90;;;;;;4843282;29;20432;-71
2021/01/19 11:54:48;;;;;;;5.57;1.58;;;9.30;99.90;;;;;;4830718;29;20194;-71
2021/01/19 11:57:15;;;;;;;3.65;1.40;;;9.30;99.90;;;;;;4844988;29;20052;-71
2021/01/19 11:59:42;;;;;;;4.22;1.33;;;9.40;99.90;;;;;;4825769;29;20562;-71
2021/01/19 12:02:09;;;;;;;5.55;1.30;;;9.40;99.90;;;;;;4843763;29;20467;-71
2021/01/19 12:04:36;;;;;;;10.13;1.83;;;9.40;99.90;;;;;;4829855;29;20065;-71
2021/01/19 12:07:05;;;;;;;7.72;1.50;;;9.50;99.90;;;;;;4827692;29;20092;-71
2021/01/19 12:09:32;;;;;;;6.13;2.20;;;9.50;99.90;;;;;;4830238;29;20376;-71
2021/01/19 12:11:58;;;;;;;7.40;1.75;;;9.50;99.90;;;;;;4828246;29;20072;-71
2021/01/19 12:14:25;;;;;;;6.40;1.67;;;9.50;99.90;;;;;;4829310;29;20803;-71
2021/01/19 12:16:53;;;;;;;9.18;1.65;;;9.50;99.90;;;;;;4846151;29;20059;-71
2021/01/19 12:19:20;;;;;;;9.02;2.45;;;9.50;99.90;;;;;;4826076;29;20061;-71
2021/01/19 12:21:51;;;;;;;5.38;1.95;;;9.50;99.90;;;;;;4821970;29;20065;-71
2021/01/19 12:24:18;;;;;;;8.63;2.47;;;9.50;99.90;;;;;;4830112;29;20058;-71
2021/01/19 12:26:57;;;;;;;8.18;2.47;;;9.60;99.90;;;;;;4843738;29;20053;-71
2021/01/19 12:29:26;;;;;;;8.90;2.15;;;9.60;99.90;;;;;;4829058;29;20399;-71
2021/01/19 12:31:59;;;;;;;6.80;1.63;;;9.60;99.90;;;;;;4826242;29;20085;-71
2021/01/19 12:34:25;;;;;;;7.38;2.17;;;9.60;99.90;;;;;;4828900;29;20129;-70
2021/01/19 12:36:53;;;;;;;7.45;2.40;;;9.60;99.90;;;;;;4817930;29;20049;-71
2021/01/19 12:39:19;;;;;;;8.32;2.00;;;9.60;99.90;;;;;;4827944;29;20645;-71
2021/01/19 12:41:45;;;;;;;8.75;2.65;;;9.60;99.90;;;;;;4823577;29;20061;-70
2021/01/19 12:44:13;;;;;;;6.00;2.35;;;9.60;99.90;;;;;;4828475;29;20049;-70
2021/01/19 12:46:39;;;;;;;9.48;2.35;;;9.60;99.90;;;;;;4830845;29;20553;-71
2021/01/19 12:49:07;;;;;;;6.88;1.92;;;9.60;99.90;;;;;;4829248;29;20053;-70
2021/01/19 12:51:34;;;;;;;8.07;2.22;;;9.60;99.90;;;;;;4829548;29;20054;-70
2021/01/19 12:54:00;;;;;;;9.18;2.00;;;9.60;99.90;;;;;;4826796;29;20489;-70
2021/01/19 12:56:26;;;;;;;8.65;2.20;;;9.60;99.90;;;;;;4829205;29;20140;-70
2021/01/19 12:58:54;;;;;;;8.23;2.20;;;9.60;99.90;;;;;;4828578;29;20071;-70
2021/01/19 13:01:20;;;;;;;10.25;2.10;;;9.70;99.90;;;;;;4835270;29;20081;-70
2021/01/19 13:03:47;;;;;;;11.25;1.95;;;9.60;99.90;;;;;;4830978;29;20046;-70
2021/01/19 13:06:14;;;;;;;8.45;2.50;;;9.60;99.90;;;;;;4831069;29;20053;-71
2021/01/19 13:08:40;;;;;;;9.07;3.03;;;9.70;99.90;;;;;;4830752;29;20452;-69
2021/01/19 13:11:07;;;;;;;5.15;1.50;;;9.70;99.90;;;;;;4842902;29;20459;-70
2021/01/19 13:13:34;;;;;;;7.90;2.03;;;9.70;99.90;;;;;;4830725;29;20098;-70
2021/01/19 13:16:01;;;;;;;7.57;1.95;;;9.70;99.90;;;;;;4841467;29;20049;-70